Time;durP1;ratioP1;P1;durP2;ratioP2;P2;SDS_P1;SDS_P2;PMS_P1;PMS_P2;Temp;Humidity;BMP_temperature;BMP_pressure;BME280_temperature;BME280_humidity;BME280_pressure;Samples;Min_cycle;Max_cycle;Signal;HPM_P1;HPM_P2
2022/03/06 00:02:54;;;;;;;2.28;1.08;;;8.30;65.40;;;;;;20865437;28;20037;-77
2022/03/06 00:12:55;;;;;;;2.40;1.40;;;8.30;65.40;;;;;;20864962;28;20031;-78
2022/03/06 00:22:55;;;;;;;1.90;1.00;;;8.30;65.40;;;;;;20846917;28;20036;-80
2022/03/06 00:32:56;;;;;;;3.38;1.02;;;8.30;65.40;;;;;;20864036;28;20052;-80
2022/03/06 00:42:57;;;;;;;1.75;1.17;;;8.30;65.40;;;;;;20862125;28;20033;-77
2022/03/06 00:52:57;;;;;;;1.90;0.90;;;8.30;65.40;;;;;;20861381;28;20609;-78
2022/03/06 01:02:58;;;;;;;2.20;0.97;;;8.30;65.40;;;;;;20877103;28;20500;-78
2022/03/06 01:12:58;;;;;;;3.08;0.85;;;8.30;65.40;;;;;;20859714;28;20322;-78
2022/03/06 01:22:59;;;;;;;0.98;0.57;;;8.20;65.30;;;;;;20859573;28;20080;-77
2022/03/06 01:33:00;;;;;;;1.83;1.15;;;8.30;65.30;;;;;;20875396;28;20293;-80
2022/03/06 01:43:00;;;;;;;2.17;1.08;;;8.30;65.30;;;;;;20858220;28;20036;-80
2022/03/06 01:53:03;;;;;;;1.33;0.73;;;8.20;65.20;;;;;;20857944;28;20494;-80
2022/03/06 02:03:04;;;;;;;1.45;0.80;;;8.20;65.20;;;;;;20842003;28;20068;-80
2022/03/06 02:13:04;;;;;;;2.47;1.08;;;8.20;65.20;;;;;;20857590;28;20032;-81
2022/03/06 02:23:05;;;;;;;0.70;0.70;;;8.20;65.10;;;;;;20889199;28;20040;-77
2022/03/06 02:33:07;;;;;;;1.85;0.82;;;8.20;65.10;;;;;;20888148;28;20131;-80
2022/03/06 02:43:08;;;;;;;1.27;0.70;;;8.20;65.10;;;;;;20871183;28;20041;-80
2022/03/06 02:53:09;;;;;;;1.27;0.77;;;8.20;65.10;;;;;;20870321;28;20033;-79
2022/03/06 03:03:10;;;;;;;1.02;0.73;;;8.20;65.10;;;;;;20869802;28;20129;-81
2022/03/06 03:13:11;;;;;;;1.30;0.60;;;8.20;65.00;;;;;;20885535;28;20029;-80
2022/03/06 03:23:12;;;;;;;2.20;0.80;;;8.20;65.00;;;;;;20868613;28;20107;-80
2022/03/06 03:33:12;;;;;;;1.38;0.70;;;8.20;65.00;;;;;;20868061;28;20464;-79
2022/03/06 03:43:13;;;;;;;1.98;0.63;;;8.20;65.00;;;;;;20884351;28;20465;-80
2022/03/06 03:53:14;;;;;;;1.63;0.90;;;8.20;65.00;;;;;;20882277;28;20052;-78
2022/03/06 04:03:15;;;;;;;1.65;0.88;;;8.20;65.00;;;;;;20882254;28;20082;-78
2022/03/06 04:13:17;;;;;;;1.92;0.93;;;8.20;64.80;;;;;;20882635;28;20033;-77
2022/03/06 04:23:18;;;;;;;1.90;0.85;;;8.20;64.80;;;;;;20863990;28;20135;-78
2022/03/06 04:33:18;;;;;;;1.45;0.90;;;8.20;64.70;;;;;;20880079;28;20041;-78
2022/03/06 04:43:19;;;;;;;1.63;1.00;;;8.20;64.70;;;;;;20879208;28;20094;-80
2022/03/06 04:53:19;;;;;;;1.65;0.77;;;8.20;64.70;;;;;;20878194;28;20120;-78
2022/03/06 05:03:20;;;;;;;2.08;0.80;;;8.20;64.60;;;;;;20878075;28;20033;-78
2022/03/06 05:13:24;;;;;;;1.50;0.80;;;8.20;64.70;;;;;;20876599;28;20131;-78
2022/03/06 05:23:24;;;;;;;1.75;0.50;;;8.20;64.60;;;;;;20859552;28;20069;-77
2022/03/06 05:33:25;;;;;;;2.00;0.90;;;8.40;64.30;;;;;;20859794;28;20148;-78
2022/03/06 05:43:25;;;;;;;4.28;1.20;;;8.60;63.70;;;;;;20856779;28;20443;-77
2022/03/06 05:53:26;;;;;;;2.60;0.75;;;8.90;63.10;;;;;;20857257;28;20290;-78
2022/03/06 06:03:27;;;;;;;1.42;0.77;;;9.10;62.40;;;;;;20873830;28;20048;-78
2022/03/06 06:13:27;;;;;;;0.98;0.80;;;9.20;61.70;;;;;;20873208;28;20033;-78
2022/03/06 06:23:28;;;;;;;2.63;1.10;;;9.30;61.40;;;;;;20840432;28;20040;-78
2022/03/06 06:33:28;;;;;;;2.25;0.88;;;9.20;61.20;;;;;;20873812;28;20834;-78
2022/03/06 06:43:29;;;;;;;1.33;0.93;;;9.00;61.50;;;;;;20855513;28;20461;-78
2022/03/06 06:53:30;;;;;;;1.92;1.10;;;8.90;61.80;;;;;;20862687;28;20029;-78
2022/03/06 07:03:30;;;;;;;2.53;1.10;;;8.70;62.20;;;;;;20886286;28;20075;-78
2022/03/06 07:13:31;;;;;;;2.33;0.97;;;8.60;62.40;;;;;;20887129;28;20108;-78
2022/03/06 07:23:32;;;;;;;1.73;0.77;;;8.50;62.70;;;;;;20868296;28;20401;-83
2022/03/06 07:33:32;;;;;;;4.82;1.40;;;8.50;63.00;;;;;;20863469;28;20041;-78
2022/03/06 07:43:33;;;;;;;1.60;0.88;;;8.40;63.10;;;;;;20842382;28;20060;-78
2022/03/06 07:53:34;;;;;;;1.52;0.70;;;8.40;63.20;;;;;;20850574;28;20040;-75
2022/03/06 08:03:34;;;;;;;2.15;0.95;;;8.40;63.40;;;;;;20847718;28;20098;-74
2022/03/06 08:13:35;;;;;;;1.08;0.52;;;8.30;63.50;;;;;;20897055;28;20056;-73
2022/03/06 08:23:36;;;;;;;1.17;0.70;;;8.30;63.60;;;;;;20879684;28;20454;-75
2022/03/06 08:33:37;;;;;;;1.23;0.60;;;8.30;63.80;;;;;;20864226;28;20118;-75
2022/03/06 08:43:37;;;;;;;1.55;0.82;;;8.30;63.90;;;;;;20862276;28;20033;-76
2022/03/06 08:53:38;;;;;;;2.25;0.70;;;8.30;64.00;;;;;;20847203;28;20463;-81
2022/03/06 09:03:39;;;;;;;1.70;0.65;;;8.20;64.10;;;;;;20895695;28;20037;-81
2022/03/06 09:13:39;;;;;;;1.43;0.70;;;8.20;64.20;;;;;;20887574;28;20158;-79
2022/03/06 09:23:40;;;;;;;0.80;0.60;;;8.20;64.30;;;;;;20888476;28;20291;-80
2022/03/06 09:33:41;;;;;;;1.20;0.63;;;8.20;64.30;;;;;;20858515;28;20060;-80
2022/03/06 09:43:42;;;;;;;2.70;0.60;;;8.20;64.40;;;;;;20874745;28;20469;-75
2022/03/06 09:53:42;;;;;;;1.15;0.50;;;8.20;64.40;;;;;;20888687;28;20337;-74
2022/03/06 10:03:43;;;;;;;1.38;0.57;;;8.30;64.40;;;;;;20856061;28;20068;-74
2022/03/06 10:13:44;;;;;;;6.85;1.42;;;8.30;64.40;;;;;;20855256;28;20035;-73
2022/03/06 10:23:46;;;;;;;13.00;1.58;;;8.30;64.00;;;;;;20855395;28;20044;-73
2022/03/06 10:34:08;;;;;;;4.55;1.70;;;8.40;63.90;;;;;;20857188;28;20041;-77
2022/03/06 10:44:10;;;;;;;4.18;1.25;;;8.40;64.20;;;;;;20889078;28;20041;-74
2022/03/06 10:54:11;;;;;;;4.00;1.10;;;8.40;63.70;;;;;;20887244;28;20473;-76
2022/03/06 11:04:11;;;;;;;1.88;0.80;;;8.30;63.80;;;;;;20869774;28;20131;-77
2022/03/06 11:14:12;;;;;;;2.67;0.80;;;8.30;63.90;;;;;;20893703;28;20416;-78
2022/03/06 11:24:15;;;;;;;1.92;0.80;;;8.30;63.80;;;;;;20869441;28;20120;-75
2022/03/06 11:34:32;;;;;;;6.22;1.15;;;8.40;63.70;;;;;;21247013;22;20459;-82
2022/03/06 11:44:41;;;;;;;1.95;0.75;;;8.70;63.50;;;;;;20884782;28;20040;-78
2022/03/06 11:54:41;;;;;;;2.08;0.70;;;8.80;62.90;;;;;;20900263;28;20037;-79
2022/03/06 12:04:47;;;;;;;2.13;0.60;;;9.00;62.40;;;;;;20899374;28;20045;-77
2022/03/06 12:14:57;;;;;;;1.80;0.90;;;9.10;61.90;;;;;;20837666;28;20033;-77
2022/03/06 12:25:07;;;;;;;1.02;0.50;;;9.20;61.50;;;;;;20874463;28;20037;-73
2022/03/06 12:35:12;;;;;;;1.23;0.90;;;9.20;61.30;;;;;;20890175;28;20064;-74
2022/03/06 12:45:15;;;;;;;1.55;0.77;;;9.10;61.30;;;;;;20890875;28;20670;-75
2022/03/06 12:55:17;;;;;;;0.88;0.60;;;8.90;61.60;;;;;;20872771;28;20097;-76
2022/03/06 13:05:20;;;;;;;1.27;0.70;;;8.80;61.90;;;;;;20868033;28;20040;-76
2022/03/06 13:15:21;;;;;;;1.13;0.47;;;8.70;62.20;;;;;;20891912;28;20043;-77
2022/03/06 13:25:23;;;;;;;1.67;0.70;;;8.60;62.50;;;;;;20874693;28;20087;-78
2022/03/06 13:35:29;;;;;;;4.60;0.65;;;8.50;62.70;;;;;;20880404;28;20037;-76
2022/03/06 13:45:30;;;;;;;5.20;0.80;;;8.60;62.60;;;;;;20889760;28;20044;-75
2022/03/06 13:55:32;;;;;;;16.88;1.63;;;8.50;62.50;;;;;;20872813;28;20488;-75
2022/03/06 14:05:34;;;;;;;18.88;4.40;;;8.50;62.40;;;;;;20853805;28;20045;-76
2022/03/06 14:15:35;;;;;;;26.73;3.92;;;8.60;62.50;;;;;;20888046;28;20037;-74
2022/03/06 14:25:37;;;;;;;21.02;2.28;;;8.60;62.80;;;;;;20887871;28;20060;-77
2022/03/06 14:35:38;;;;;;;15.60;2.30;;;8.50;63.10;;;;;;20930489;28;20403;-78
2022/03/06 14:45:38;;;;;;;9.35;1.77;;;8.50;63.30;;;;;;20920303;28;20044;-80
2022/03/06 14:55:39;;;;;;;10.07;2.58;;;8.40;63.40;;;;;;20841537;28;20034;-80
2022/03/06 15:05:40;;;;;;;9.90;1.30;;;8.40;63.40;;;;;;20751867;28;20049;-76
2022/03/06 15:15:41;;;;;;;3.22;0.75;;;8.50;63.60;;;;;;20840513;28;20040;-76
2022/03/06 15:25:41;;;;;;;6.10;1.38;;;8.40;63.70;;;;;;20870610;28;20029;-75
2022/03/06 15:35:42;;;;;;;12.95;2.08;;;8.40;63.80;;;;;;20896109;28;20033;-77
2022/03/06 15:45:43;;;;;;;4.00;0.98;;;8.40;63.80;;;;;;20864400;28;20033;-75
2022/03/06 15:55:43;;;;;;;2.45;1.17;;;8.40;63.70;;;;;;20799670;28;20029;-73
2022/03/06 16:05:44;;;;;;;2.53;0.70;;;8.50;63.50;;;;;;20829069;28;20037;-75
2022/03/06 16:15:44;;;;;;;4.35;1.13;;;8.60;63.10;;;;;;20799936;28;20573;-75
2022/03/06 16:25:45;;;;;;;2.83;0.70;;;8.80;62.70;;;;;;20888210;28;20473;-74
2022/03/06 16:35:47;;;;;;;6.00;0.80;;;9.00;62.30;;;;;;20880218;28;20118;-74
2022/03/06 16:45:49;;;;;;;4.10;0.55;;;9.10;61.80;;;;;;20852977;28;20315;-75
2022/03/06 16:55:50;;;;;;;1.60;0.63;;;9.10;61.50;;;;;;20899757;28;20090;-75
2022/03/06 17:05:51;;;;;;;2.40;0.90;;;9.00;61.50;;;;;;20865450;28;20377;-74
2022/03/06 17:15:51;;;;;;;1.45;0.50;;;8.80;61.60;;;;;;20874675;28;20385;-75
2022/03/06 17:25:52;;;;;;;1.23;0.90;;;8.80;61.80;;;;;;20858053;28;20298;-74
2022/03/06 17:35:53;;;;;;;1.65;0.93;;;8.70;62.00;;;;;;20898020;28;20058;-74
2022/03/06 17:45:53;;;;;;;0.75;0.43;;;8.60;62.10;;;;;;20904428;28;20132;-75
2022/03/06 17:55:54;;;;;;;3.83;0.77;;;8.50;62.20;;;;;;20884451;28;20031;-77
2022/03/06 18:05:55;;;;;;;5.82;1.08;;;8.50;62.40;;;;;;20871124;28;20033;-77
2022/03/06 18:15:55;;;;;;;2.58;0.60;;;8.50;62.40;;;;;;20908455;28;20100;-80
2022/03/06 18:25:56;;;;;;;1.42;0.40;;;8.40;62.50;;;;;;20896536;28;20041;-79
2022/03/06 18:35:57;;;;;;;1.30;0.65;;;8.40;62.60;;;;;;20906981;28;20043;-79
2022/03/06 18:45:57;;;;;;;1.33;0.60;;;8.40;62.70;;;;;;20890505;28;20167;-79
2022/03/06 18:55:59;;;;;;;0.82;0.47;;;8.30;62.80;;;;;;20905598;28;20554;-79
2022/03/06 19:06:00;;;;;;;4.07;0.98;;;8.30;62.90;;;;;;20921348;28;20048;-80
2022/03/06 19:16:00;;;;;;;4.43;0.98;;;8.30;62.90;;;;;;20921164;28;20029;-80
2022/03/06 19:26:01;;;;;;;1.63;0.50;;;8.30;63.00;;;;;;20899037;28;20455;-80
2022/03/06 19:36:02;;;;;;;2.20;0.70;;;8.30;63.00;;;;;;20875858;28;20048;-79
2022/03/06 19:46:02;;;;;;;1.30;0.80;;;8.30;63.10;;;;;;20914647;28;20292;-80
2022/03/06 19:56:03;;;;;;;1.05;0.63;;;8.20;63.00;;;;;;20896180;28;20029;-80
2022/03/06 20:06:04;;;;;;;2.20;0.98;;;8.20;63.00;;;;;;20841013;28;20102;-80
2022/03/06 20:16:06;;;;;;;3.45;1.02;;;8.30;63.60;;;;;;20877600;28;20021;-80
2022/03/06 20:26:07;;;;;;;1.50;0.80;;;8.30;63.00;;;;;;20910352;28;20167;-79
2022/03/06 20:36:07;;;;;;;2.40;1.17;;;8.20;62.90;;;;;;20862816;28;20067;-80
2022/03/06 20:46:08;;;;;;;1.60;0.90;;;8.30;62.90;;;;;;20879581;28;20036;-80
2022/03/06 20:56:09;;;;;;;1.42;0.95;;;8.20;62.80;;;;;;20878853;28;20045;-79
2022/03/06 21:06:09;;;;;;;3.13;1.00;;;8.30;62.90;;;;;;20861142;28;20697;-80
2022/03/06 21:16:10;;;;;;;2.45;1.20;;;8.20;62.80;;;;;;20876823;28;20037;-80
2022/03/06 21:26:16;;;;;;;2.45;1.02;;;8.20;62.80;;;;;;20858624;28;20032;-79
2022/03/06 21:36:18;;;;;;;1.98;0.70;;;8.20;62.80;;;;;;20891261;28;20128;-79
2022/03/06 21:46:18;;;;;;;3.00;1.52;;;8.20;62.80;;;;;;20892679;28;20085;-79
2022/03/06 21:56:19;;;;;;;1.73;1.05;;;8.20;62.80;;;;;;20875791;28;20033;-80
2022/03/06 22:06:19;;;;;;;1.70;1.00;;;8.20;62.80;;;;;;20872827;28;20041;-81
2022/03/06 22:16:20;;;;;;;1.98;1.05;;;8.20;62.80;;;;;;20858544;28;20036;-80
2022/03/06 22:26:21;;;;;;;4.05;2.50;;;8.20;62.80;;;;;;20853546;28;20041;-80
2022/03/06 22:36:21;;;;;;;1.42;0.90;;;8.20;62.80;;;;;;20873955;28;20036;-80
2022/03/06 22:46:22;;;;;;;3.22;1.35;;;8.20;62.80;;;;;;20924120;28;20389;-81
2022/03/06 22:56:22;;;;;;;4.05;1.20;;;8.20;62.80;;;;;;20905635;28;20040;-80
2022/03/06 23:16:55;;;;;;;2.53;1.30;;;8.20;62.80;;;;;;20865656;28;20098;-80
2022/03/06 23:26:56;;;;;;;3.28;1.55;;;8.20;62.80;;;;;;20870738;28;20068;-80
2022/03/06 23:36:56;;;;;;;3.72;1.85;;;8.20;62.80;;;;;;20885656;28;20040;-79
2022/03/06 23:46:57;;;;;;;2.90;1.58;;;8.20;62.90;;;;;;20868956;28;20437;-81
2022/03/06 23:56:58;;;;;;;2.17;1.42;;;8.20;62.90;;;;;;20868467;28;20488;-80
